Time;durP1;ratioP1;P1;durP2;ratioP2;P2;SDS_P1;SDS_P2;PMS_P1;PMS_P2;Temp;Humidity;BMP_temperature;BMP_pressure;BME280_temperature;BME280_humidity;BME280_pressure;Samples;Min_cycle;Max_cycle;Signal;HPM_P1;HPM_P2
2021/08/17 00:00:07;;;;;;;5.13;2.78;;;;;;;;;;5014638;28;20041;-54
2021/08/17 00:02:33;;;;;;;2.90;1.67;;;;;;;;;;5014944;28;20017;-54
2021/08/17 00:04:59;;;;;;;2.08;1.67;;;;;;;;;;5015238;28;20022;-54
2021/08/17 00:07:26;;;;;;;1.45;1.15;;;;;;;;;;5015274;28;20026;-54
2021/08/17 00:09:52;;;;;;;1.83;1.20;;;;;;;;;;5014398;28;20038;-54
2021/08/17 00:12:18;;;;;;;1.63;1.10;;;;;;;;;;5014396;28;20341;-54
2021/08/17 00:14:44;;;;;;;1.67;0.93;;;;;;;;;;5015344;28;20036;-54
2021/08/17 00:17:11;;;;;;;1.20;0.88;;;;;;;;;;5014739;28;20018;-54
2021/08/17 00:19:43;;;;;;;1.10;1.00;;;;;;;;;;5014708;28;20051;-54
2021/08/17 00:22:10;;;;;;;1.70;0.90;;;;;;;;;;5014033;28;20030;-54
2021/08/17 00:24:36;;;;;;;1.05;0.73;;;;;;;;;;5015159;28;20033;-54
2021/08/17 00:27:02;;;;;;;0.82;0.75;;;;;;;;;;5014644;28;20052;-54
2021/08/17 00:29:28;;;;;;;1.00;0.90;;;;;;;;;;5014544;28;20065;-54
2021/08/17 00:31:54;;;;;;;3.30;0.70;;;;;;;;;;5014009;28;20440;-54
2021/08/17 00:34:20;;;;;;;0.68;0.68;;;;;;;;;;5014743;28;20088;-54
2021/08/17 00:36:47;;;;;;;2.63;0.98;;;;;;;;;;5014628;28;20022;-54
2021/08/17 00:39:13;;;;;;;0.98;0.90;;;;;;;;;;5014108;28;20018;-54
2021/08/17 00:41:39;;;;;;;3.08;0.77;;;;;;;;;;5013480;28;20037;-54
2021/08/17 00:44:05;;;;;;;0.75;0.70;;;;;;;;;;5014533;28;20446;-54
2021/08/17 00:46:32;;;;;;;4.15;0.98;;;;;;;;;;5014692;28;20036;-54
2021/08/17 00:48:58;;;;;;;0.75;0.60;;;;;;;;;;5013135;28;20103;-54
2021/08/17 00:51:24;;;;;;;0.75;0.73;;;;;;;;;;5030398;28;20033;-54
2021/08/17 00:53:52;;;;;;;0.95;0.70;;;;;;;;;;5034085;28;20025;-54
2021/08/17 00:56:18;;;;;;;3.40;1.15;;;;;;;;;;5031828;28;20092;-54
2021/08/17 00:58:44;;;;;;;0.88;0.70;;;;;;;;;;5015509;28;20432;-54
2021/08/17 01:01:10;;;;;;;1.25;0.80;;;;;;;;;;5013157;28;20466;-54
2021/08/17 01:03:39;;;;;;;2.17;0.82;;;;;;;;;;5014071;28;20024;-54
2021/08/17 01:06:06;;;;;;;1.35;0.80;;;;;;;;;;5014022;28;20040;-54
2021/08/17 01:08:32;;;;;;;2.35;0.65;;;;;;;;;;5013720;28;20022;-54
2021/08/17 01:10:58;;;;;;;0.85;0.70;;;;;;;;;;5013113;28;20052;-54
2021/08/17 01:13:26;;;;;;;0.70;0.70;;;;;;;;;;5013959;28;20014;-54
2021/08/17 01:15:53;;;;;;;1.70;0.90;;;;;;;;;;5013205;28;20108;-54
2021/08/17 01:18:20;;;;;;;1.95;1.02;;;;;;;;;;5014230;28;20118;-54
2021/08/17 01:20:51;;;;;;;1.10;0.95;;;;;;;;;;5012944;28;20364;-54
2021/08/17 01:23:21;;;;;;;0.70;0.70;;;;;;;;;;5014118;28;20022;-54
2021/08/17 01:25:47;;;;;;;1.30;1.00;;;;;;;;;;5013699;28;20026;-54
2021/08/17 01:28:13;;;;;;;3.42;1.25;;;;;;;;;;5013432;28;20048;-54
2021/08/17 01:30:39;;;;;;;1.55;0.93;;;;;;;;;;5012730;28;20510;-54
2021/08/17 01:33:05;;;;;;;1.92;1.08;;;;;;;;;;5013650;28;20030;-54
2021/08/17 01:35:31;;;;;;;5.47;1.60;;;;;;;;;;5021038;28;20324;-53
2021/08/17 01:37:57;;;;;;;3.63;1.33;;;;;;;;;;5033364;28;20029;-54
2021/08/17 01:40:23;;;;;;;7.22;1.80;;;;;;;;;;5032952;28;20021;-54
2021/08/17 01:42:52;;;;;;;4.43;1.23;;;;;;;;;;5032008;28;20025;-54
2021/08/17 01:45:19;;;;;;;3.50;1.67;;;;;;;;;;5033477;28;20041;-54
2021/08/17 01:47:47;;;;;;;1.50;1.30;;;;;;;;;;5032970;28;20030;-55
2021/08/17 01:50:14;;;;;;;3.65;1.58;;;;;;;;;;5032771;28;20134;-54
2021/08/17 01:52:40;;;;;;;3.58;1.75;;;;;;;;;;5032420;28;20057;-54
2021/08/17 01:55:07;;;;;;;4.07;1.60;;;;;;;;;;5032741;28;20036;-54
2021/08/17 01:57:33;;;;;;;1.60;1.30;;;;;;;;;;5032932;28;20454;-54
2021/08/17 01:59:59;;;;;;;3.25;1.75;;;;;;;;;;5032937;28;20226;-54
2021/08/17 02:02:25;;;;;;;10.50;1.85;;;;;;;;;;5032488;28;20024;-54
2021/08/17 02:04:51;;;;;;;5.75;2.08;;;;;;;;;;5033039;28;20452;-54
2021/08/17 02:07:17;;;;;;;3.08;1.90;;;;;;;;;;5031254;28;20029;-54
2021/08/17 02:09:43;;;;;;;4.32;1.40;;;;;;;;;;5032165;28;20118;-54
2021/08/17 02:12:09;;;;;;;4.35;2.35;;;;;;;;;;5032067;28;20034;-54
2021/08/17 02:14:35;;;;;;;4.22;2.15;;;;;;;;;;5032970;28;20447;-54
2021/08/17 02:17:01;;;;;;;7.13;2.35;;;;;;;;;;5032738;28;20033;-54
2021/08/17 02:19:27;;;;;;;3.85;1.75;;;;;;;;;;5032510;28;20028;-53
2021/08/17 02:21:53;;;;;;;4.68;2.10;;;;;;;;;;5036417;28;20473;-54
2021/08/17 02:24:19;;;;;;;4.85;2.03;;;;;;;;;;5036781;28;20029;-54
2021/08/17 02:26:45;;;;;;;3.80;2.28;;;;;;;;;;5037040;28;20458;-54
2021/08/17 02:29:11;;;;;;;5.05;2.33;;;;;;;;;;5030797;28;20414;-54
2021/08/17 02:31:37;;;;;;;4.38;2.22;;;;;;;;;;5035821;28;20270;-54
2021/08/17 02:34:03;;;;;;;4.03;2.20;;;;;;;;;;5036862;28;20083;-54
2021/08/17 02:36:29;;;;;;;5.13;2.00;;;;;;;;;;5036888;28;20029;-54
2021/08/17 02:38:55;;;;;;;4.78;2.30;;;;;;;;;;5036283;28;20484;-54
2021/08/17 02:41:21;;;;;;;4.22;2.42;;;;;;;;;;5035481;28;20033;-54
2021/08/17 02:43:47;;;;;;;5.78;2.10;;;;;;;;;;5036286;28;20022;-54
2021/08/17 02:46:13;;;;;;;7.05;2.20;;;;;;;;;;5036537;28;20048;-54
2021/08/17 02:48:39;;;;;;;6.43;2.92;;;;;;;;;;5036056;28;20431;-54
2021/08/17 02:51:05;;;;;;;7.88;2.50;;;;;;;;;;5035525;28;20021;-54
2021/08/17 02:53:31;;;;;;;7.70;2.50;;;;;;;;;;5036400;28;20394;-54
2021/08/17 02:55:57;;;;;;;7.43;2.25;;;;;;;;;;5036010;28;20049;-54
2021/08/17 02:58:23;;;;;;;10.07;2.17;;;;;;;;;;5035752;28;20033;-54
2021/08/17 03:00:49;;;;;;;11.98;3.00;;;;;;;;;;5035017;28;20029;-54
2021/08/17 03:03:15;;;;;;;4.45;2.47;;;;;;;;;;5036535;28;20064;-54
2021/08/17 03:05:41;;;;;;;7.85;2.45;;;;;;;;;;5036242;28;20108;-54
2021/08/17 03:08:07;;;;;;;2.90;1.88;;;;;;;;;;5036198;28;20024;-54
2021/08/17 03:10:35;;;;;;;9.00;2.30;;;;;;;;;;5034742;28;20037;-54
2021/08/17 03:13:01;;;;;;;4.00;2.00;;;;;;;;;;5035542;28;20028;-53
2021/08/17 03:15:33;;;;;;;4.30;2.40;;;;;;;;;;5035068;28;20030;-54
2021/08/17 03:18:03;;;;;;;3.72;2.20;;;;;;;;;;5036271;28;20094;-54
2021/08/17 03:20:30;;;;;;;7.20;2.13;;;;;;;;;;5035030;28;20026;-53
2021/08/17 03:22:56;;;;;;;7.43;2.22;;;;;;;;;;5035960;28;20379;-53
2021/08/17 03:25:23;;;;;;;2.92;1.92;;;;;;;;;;5035299;28;20061;-54
2021/08/17 03:27:49;;;;;;;2.97;1.83;;;;;;;;;;5035752;28;20030;-54
2021/08/17 03:30:17;;;;;;;6.78;2.33;;;;;;;;;;5035029;28;20474;-54
2021/08/17 03:32:43;;;;;;;3.97;2.10;;;;;;;;;;5034893;28;20025;-54
2021/08/17 03:35:10;;;;;;;4.43;1.95;;;;;;;;;;5035070;28;20089;-54
2021/08/17 03:37:38;;;;;;;3.70;1.83;;;;;;;;;;5035671;28;20100;-54
2021/08/17 03:40:05;;;;;;;7.32;2.15;;;;;;;;;;5034772;28;20037;-54
2021/08/17 03:42:31;;;;;;;3.45;2.25;;;;;;;;;;5035005;28;20101;-54
2021/08/17 03:44:57;;;;;;;5.32;2.42;;;;;;;;;;5035824;28;20503;-54
2021/08/17 03:47:23;;;;;;;13.30;2.22;;;;;;;;;;5034989;28;20024;-54
2021/08/17 03:49:49;;;;;;;5.32;2.95;;;;;;;;;;5034863;28;20037;-55
2021/08/17 03:52:15;;;;;;;4.50;2.35;;;;;;;;;;5034735;28;20025;-54
2021/08/17 03:54:41;;;;;;;3.78;2.25;;;;;;;;;;5034953;28;20032;-55
2021/08/17 03:57:07;;;;;;;6.03;2.53;;;;;;;;;;5035297;28;20022;-55
2021/08/17 03:59:33;;;;;;;6.28;2.50;;;;;;;;;;5035061;28;20075;-54
2021/08/17 04:01:59;;;;;;;7.57;2.28;;;;;;;;;;5034400;28;20057;-54
2021/08/17 04:04:25;;;;;;;11.73;2.72;;;;;;;;;;5035150;28;20040;-54
2021/08/17 04:06:51;;;;;;;5.72;2.65;;;;;;;;;;5035004;28;20017;-54
2021/08/17 04:09:17;;;;;;;4.53;2.78;;;;;;;;;;5034137;28;20037;-54
2021/08/17 04:11:43;;;;;;;11.60;2.30;;;;;;;;;;5034484;28;20059;-54
2021/08/17 04:14:09;;;;;;;5.25;2.22;;;;;;;;;;5034879;28;20128;-54
2021/08/17 04:16:35;;;;;;;8.25;3.40;;;;;;;;;;5034958;28;20064;-54
2021/08/17 04:19:01;;;;;;;4.07;2.47;;;;;;;;;;5034102;28;20451;-54
2021/08/17 04:21:27;;;;;;;7.15;2.50;;;;;;;;;;5034617;28;20021;-54
2021/08/17 04:23:53;;;;;;;6.30;2.88;;;;;;;;;;5034244;28;20033;-54
2021/08/17 04:26:19;;;;;;;6.57;2.85;;;;;;;;;;5034721;28;20340;-54
2021/08/17 04:28:45;;;;;;;9.27;2.50;;;;;;;;;;5034556;28;20028;-53
2021/08/17 04:31:11;;;;;;;4.10;2.25;;;;;;;;;;5033621;28;20030;-54
2021/08/17 04:33:37;;;;;;;7.53;2.08;;;;;;;;;;5034299;28;20508;-54
2021/08/17 04:36:03;;;;;;;4.35;2.35;;;;;;;;;;5034545;28;20079;-54
2021/08/17 04:38:29;;;;;;;4.28;2.25;;;;;;;;;;5034345;28;20048;-54
2021/08/17 04:40:55;;;;;;;10.68;2.50;;;;;;;;;;5033116;28;20036;-54
2021/08/17 04:43:21;;;;;;;6.25;2.20;;;;;;;;;;5033527;28;20029;-54
2021/08/17 04:45:49;;;;;;;9.45;2.70;;;;;;;;;;5034292;28;20068;-54
2021/08/17 04:48:15;;;;;;;6.63;2.85;;;;;;;;;;5034261;28;20044;-54
2021/08/17 04:50:41;;;;;;;5.78;2.70;;;;;;;;;;5033015;28;20067;-54
2021/08/17 04:53:07;;;;;;;4.15;2.05;;;;;;;;;;5033767;28;20378;-54
2021/08/17 04:55:33;;;;;;;6.20;2.70;;;;;;;;;;5034248;28;20041;-54
2021/08/17 04:58:00;;;;;;;8.00;2.30;;;;;;;;;;5033868;28;20021;-54
2021/08/17 05:00:26;;;;;;;4.78;2.38;;;;;;;;;;5033453;28;20363;-54
2021/08/17 05:02:53;;;;;;;5.10;2.28;;;;;;;;;;5033720;28;20025;-54
2021/08/17 05:05:19;;;;;;;4.55;2.22;;;;;;;;;;5033419;28;20025;-54
2021/08/17 05:07:45;;;;;;;5.72;2.08;;;;;;;;;;5033802;28;20052;-54
2021/08/17 05:10:14;;;;;;;8.23;2.33;;;;;;;;;;5032951;28;20080;-54
2021/08/17 05:12:40;;;;;;;3.50;2.30;;;;;;;;;;5032828;28;20071;-54
2021/08/17 05:15:07;;;;;;;13.95;2.53;;;;;;;;;;5033156;28;20056;-54
2021/08/17 05:17:33;;;;;;;4.93;2.60;;;;;;;;;;5033106;28;20457;-54
2021/08/17 05:19:59;;;;;;;9.57;3.33;;;;;;;;;;5032419;28;20029;-54
2021/08/17 05:22:25;;;;;;;6.57;3.53;;;;;;;;;;5032503;28;20022;-54
2021/08/17 05:24:51;;;;;;;4.88;2.55;;;;;;;;;;5033072;28;20537;-54
2021/08/17 05:27:17;;;;;;;7.50;2.55;;;;;;;;;;5032726;28;20031;-54
2021/08/17 05:29:43;;;;;;;5.45;2.60;;;;;;;;;;5031571;28;20060;-52
2021/08/17 05:32:17;;;;;;;8.50;3.20;;;;;;;;;;5031638;28;20053;-53
2021/08/17 05:34:43;;;;;;;5.05;2.30;;;;;;;;;;5032320;28;20018;-53
2021/08/17 05:37:09;;;;;;;7.25;2.65;;;;;;;;;;5013346;28;20026;-53
2021/08/17 05:39:35;;;;;;;8.88;2.70;;;;;;;;;;5013266;28;20056;-53
2021/08/17 05:42:01;;;;;;;6.95;2.50;;;;;;;;;;5012716;28;20029;-53
2021/08/17 05:44:27;;;;;;;2.97;2.00;;;;;;;;;;5013335;28;20053;-53
2021/08/17 05:46:53;;;;;;;4.65;2.38;;;;;;;;;;5012840;28;20440;-53
2021/08/17 05:49:19;;;;;;;3.92;2.25;;;;;;;;;;5012816;28;20085;-53
2021/08/17 05:51:45;;;;;;;5.38;2.35;;;;;;;;;;5013046;28;20018;-53
2021/08/17 05:54:11;;;;;;;6.65;2.80;;;;;;;;;;5013188;28;20026;-53
2021/08/17 05:56:37;;;;;;;8.10;2.78;;;;;;;;;;5013197;28;20364;-53
2021/08/17 05:59:03;;;;;;;4.03;2.50;;;;;;;;;;5013056;28;20046;-53
2021/08/17 06:01:29;;;;;;;6.32;2.53;;;;;;;;;;5013248;28;20638;-53
2021/08/17 06:03:55;;;;;;;4.20;2.58;;;;;;;;;;5012470;28;20034;-53
2021/08/17 06:06:21;;;;;;;7.07;2.85;;;;;;;;;;5013557;28;20022;-53
2021/08/17 06:08:47;;;;;;;5.13;2.97;;;;;;;;;;5012993;28;20368;-54
2021/08/17 06:11:13;;;;;;;8.27;2.53;;;;;;;;;;5012546;28;20025;-53
2021/08/17 06:13:39;;;;;;;4.80;2.72;;;;;;;;;;5013031;28;20109;-53
2021/08/17 06:16:05;;;;;;;5.22;2.70;;;;;;;;;;5013003;28;20101;-53
2021/08/17 06:18:31;;;;;;;5.25;2.53;;;;;;;;;;5012742;28;20026;-54
2021/08/17 06:20:57;;;;;;;9.48;3.10;;;;;;;;;;5012462;28;20122;-53
2021/08/17 06:23:23;;;;;;;6.10;2.33;;;;;;;;;;5013070;28;20431;-53
2021/08/17 06:25:49;;;;;;;5.68;3.05;;;;;;;;;;5013049;28;20144;-53
2021/08/17 06:28:15;;;;;;;6.90;2.83;;;;;;;;;;5012659;28;20026;-53
2021/08/17 06:30:41;;;;;;;12.15;3.75;;;;;;;;;;5012438;28;20088;-53
2021/08/17 06:33:07;;;;;;;7.90;3.08;;;;;;;;;;5012895;28;20038;-54
2021/08/17 06:35:34;;;;;;;7.78;3.70;;;;;;;;;;5012878;28;20355;-53
2021/08/17 06:38:00;;;;;;;4.95;2.42;;;;;;;;;;5012910;28;20075;-53
2021/08/17 06:40:26;;;;;;;5.97;3.15;;;;;;;;;;5012650;28;20356;-53
2021/08/17 06:42:53;;;;;;;8.90;3.30;;;;;;;;;;5012042;28;20510;-53
2021/08/17 06:45:19;;;;;;;9.27;4.15;;;;;;;;;;5012789;28;20466;-54
2021/08/17 06:47:50;;;;;;;11.10;3.60;;;;;;;;;;5012789;28;20112;-53
2021/08/17 06:50:16;;;;;;;16.15;4.28;;;;;;;;;;5025618;28;20091;-54
2021/08/17 06:52:43;;;;;;;11.50;3.38;;;;;;;;;;5031890;28;20055;-53
2021/08/17 06:55:10;;;;;;;6.45;3.97;;;;;;;;;;5032678;28;20359;-54
2021/08/17 06:57:36;;;;;;;6.75;2.97;;;;;;;;;;5031449;28;20112;-53
2021/08/17 07:00:03;;;;;;;8.23;3.42;;;;;;;;;;5031725;28;20025;-53
2021/08/17 07:02:29;;;;;;;8.13;3.10;;;;;;;;;;5032174;28;20099;-54
2021/08/17 07:04:55;;;;;;;12.93;4.55;;;;;;;;;;5032626;28;20029;-53
2021/08/17 07:07:21;;;;;;;9.63;3.70;;;;;;;;;;5034979;28;20431;-53
2021/08/17 07:09:47;;;;;;;8.88;4.45;;;;;;;;;;5035405;28;20033;-54
2021/08/17 07:12:13;;;;;;;11.73;3.97;;;;;;;;;;5035503;28;20342;-53
2021/08/17 07:14:39;;;;;;;11.25;3.55;;;;;;;;;;5035767;28;20451;-53
2021/08/17 07:17:05;;;;;;;9.70;3.00;;;;;;;;;;5036204;28;20035;-53
2021/08/17 07:19:31;;;;;;;7.68;4.00;;;;;;;;;;5035375;28;20033;-53
2021/08/17 07:21:58;;;;;;;11.52;4.10;;;;;;;;;;5035747;28;20032;-53
2021/08/17 07:24:24;;;;;;;7.60;2.97;;;;;;;;;;5035607;28;20083;-53
2021/08/17 07:26:50;;;;;;;6.20;3.35;;;;;;;;;;5035923;28;20096;-53
2021/08/17 07:29:16;;;;;;;9.55;3.10;;;;;;;;;;5035303;28;20124;-53
2021/08/17 07:31:42;;;;;;;7.90;3.33;;;;;;;;;;5035188;28;20083;-53
2021/08/17 07:34:08;;;;;;;7.55;3.00;;;;;;;;;;5035847;28;20036;-53
2021/08/17 07:36:36;;;;;;;7.32;3.20;;;;;;;;;;5035764;28;20021;-53
2021/08/17 07:39:03;;;;;;;6.28;3.00;;;;;;;;;;5034808;28;20079;-53
2021/08/17 07:41:29;;;;;;;7.43;3.17;;;;;;;;;;5035066;28;20030;-54
2021/08/17 07:43:55;;;;;;;7.18;3.88;;;;;;;;;;5035260;28;20083;-53
2021/08/17 07:46:21;;;;;;;7.03;3.40;;;;;;;;;;5035563;28;20455;-54
2021/08/17 07:48:47;;;;;;;11.40;4.03;;;;;;;;;;5035320;28;20030;-54
2021/08/17 07:51:13;;;;;;;9.30;4.00;;;;;;;;;;5034722;28;20049;-53
2021/08/17 07:53:39;;;;;;;8.55;3.03;;;;;;;;;;5035043;28;20025;-53
2021/08/17 07:56:05;;;;;;;6.75;3.03;;;;;;;;;;5035267;28;20021;-53
2021/08/17 07:58:31;;;;;;;7.20;3.08;;;;;;;;;;5035297;28;20036;-53
2021/08/17 08:00:57;;;;;;;5.05;2.50;;;;;;;;;;5034417;28;20044;-53
2021/08/17 08:03:23;;;;;;;9.00;3.15;;;;;;;;;;5034975;28;20447;-53
2021/08/17 08:05:49;;;;;;;9.27;3.58;;;;;;;;;;5034998;28;20044;-53
2021/08/17 08:08:15;;;;;;;6.22;2.85;;;;;;;;;;5034503;28;20594;-53
2021/08/17 08:10:42;;;;;;;7.15;3.22;;;;;;;;;;5034199;28;20200;-54
2021/08/17 08:13:08;;;;;;;7.60;2.92;;;;;;;;;;5034916;28;20021;-53
2021/08/17 08:15:34;;;;;;;6.97;3.45;;;;;;;;;;5034758;28;20367;-53
2021/08/17 08:18:00;;;;;;;9.75;3.50;;;;;;;;;;5033992;28;20029;-53
2021/08/17 08:20:26;;;;;;;5.70;2.85;;;;;;;;;;5034271;28;20025;-53
2021/08/17 08:22:52;;;;;;;5.47;2.70;;;;;;;;;;5034100;28;20569;-53
2021/08/17 08:25:18;;;;;;;10.00;3.42;;;;;;;;;;5034620;28;20033;-53
2021/08/17 08:27:45;;;;;;;5.18;3.10;;;;;;;;;;5035086;28;20333;-53
2021/08/17 08:30:12;;;;;;;9.43;3.03;;;;;;;;;;5033907;28;20348;-53
2021/08/17 08:32:38;;;;;;;6.85;3.08;;;;;;;;;;5034117;28;20163;-53
2021/08/17 08:35:05;;;;;;;10.73;3.17;;;;;;;;;;5034531;28;20025;-53
2021/08/17 08:37:31;;;;;;;14.75;3.35;;;;;;;;;;5034098;28;20036;-53
2021/08/17 08:39:57;;;;;;;7.32;2.50;;;;;;;;;;5033904;28;20459;-53
2021/08/17 08:42:24;;;;;;;6.28;2.88;;;;;;;;;;5034248;28;20113;-53
2021/08/17 08:44:51;;;;;;;8.65;3.10;;;;;;;;;;5033841;28;20117;-53
2021/08/17 08:47:18;;;;;;;5.93;2.95;;;;;;;;;;5034365;28;20033;-54
2021/08/17 08:49:44;;;;;;;4.95;2.70;;;;;;;;;;5033875;28;20067;-53
2021/08/17 08:52:10;;;;;;;7.38;3.10;;;;;;;;;;5033708;28;20125;-53
2021/08/17 08:54:36;;;;;;;8.52;2.95;;;;;;;;;;5034234;28;20053;-53
2021/08/17 08:57:02;;;;;;;4.43;2.58;;;;;;;;;;5033886;28;20447;-53
2021/08/17 08:59:28;;;;;;;4.28;2.55;;;;;;;;;;5033728;28;20029;-53
2021/08/17 09:02:04;;;;;;;5.93;2.78;;;;;;;;;;5033512;28;20029;-53
2021/08/17 09:04:30;;;;;;;6.22;2.90;;;;;;;;;;5033600;28;20088;-53
2021/08/17 09:06:56;;;;;;;5.22;2.80;;;;;;;;;;5033615;28;20033;-53
2021/08/17 09:09:23;;;;;;;5.60;2.70;;;;;;;;;;5033342;28;20482;-53
2021/08/17 09:11:53;;;;;;;9.63;2.92;;;;;;;;;;5033569;28;20034;-54
2021/08/17 09:14:33;;;;;;;7.60;3.30;;;;;;;;;;5033755;28;20461;-53
2021/08/17 09:17:00;;;;;;;7.27;2.70;;;;;;;;;;5033154;28;20348;-53
2021/08/17 09:19:26;;;;;;;6.95;2.83;;;;;;;;;;5033291;28;20570;-53
2021/08/17 09:21:52;;;;;;;6.03;2.85;;;;;;;;;;5033302;28;20462;-53
2021/08/17 09:24:20;;;;;;;5.63;2.80;;;;;;;;;;5033438;28;20083;-53
2021/08/17 09:26:48;;;;;;;6.90;3.17;;;;;;;;;;5033769;28;20363;-54
2021/08/17 09:29:25;;;;;;;8.75;2.88;;;;;;;;;;5032498;28;20452;-53
2021/08/17 09:31:52;;;;;;;6.13;2.85;;;;;;;;;;5032898;28;20033;-53
2021/08/17 09:34:19;;;;;;;5.25;2.80;;;;;;;;;;5033640;28;20022;-53
2021/08/17 09:36:46;;;;;;;3.78;2.22;;;;;;;;;;5033584;28;20028;-53
2021/08/17 09:39:26;;;;;;;8.00;2.70;;;;;;;;;;5032504;28;20518;-54
2021/08/17 09:41:52;;;;;;;8.20;3.10;;;;;;;;;;5032786;28;20028;-57
2021/08/17 09:44:22;;;;;;;6.07;3.05;;;;;;;;;;5033375;28;20033;-54
2021/08/17 09:46:48;;;;;;;7.25;2.85;;;;;;;;;;5033503;28;20029;-53
2021/08/17 09:49:17;;;;;;;4.05;2.38;;;;;;;;;;5032930;28;20048;-53
2021/08/17 09:51:43;;;;;;;8.40;3.10;;;;;;;;;;5032619;28;20025;-53
2021/08/17 09:54:16;;;;;;;6.07;2.65;;;;;;;;;;5033102;28;20422;-53
2021/08/17 09:56:42;;;;;;;4.95;2.17;;;;;;;;;;5032592;28;20064;-54
2021/08/17 09:59:08;;;;;;;7.50;3.17;;;;;;;;;;5032859;28;20060;-53
2021/08/17 10:01:36;;;;;;;5.22;2.83;;;;;;;;;;5032659;28;20339;-53
2021/08/17 10:04:02;;;;;;;8.65;3.10;;;;;;;;;;5032906;28;20033;-53
2021/08/17 10:06:28;;;;;;;4.72;2.40;;;;;;;;;;5032868;28;20025;-53
2021/08/17 10:08:56;;;;;;;4.80;2.58;;;;;;;;;;5032738;28;20029;-53
2021/08/17 10:11:22;;;;;;;5.53;2.40;;;;;;;;;;5032031;28;20112;-54
2021/08/17 10:13:48;;;;;;;7.65;3.00;;;;;;;;;;5032638;28;20427;-53
2021/08/17 10:16:18;;;;;;;7.53;3.10;;;;;;;;;;5032779;28;20026;-53
2021/08/17 10:18:44;;;;;;;5.22;2.38;;;;;;;;;;5032824;28;20053;-53
2021/08/17 10:21:10;;;;;;;5.82;2.90;;;;;;;;;;5032318;28;20321;-53
2021/08/17 10:23:41;;;;;;;5.10;2.72;;;;;;;;;;5032672;28;20024;-53
2021/08/17 10:26:07;;;;;;;;;;;;;;;;;;5033313;28;20030;-53
2021/08/17 10:28:37;;;;;;;6.47;2.90;;;;;;;;;;5032773;28;20258;-54
2021/08/17 10:31:11;;;;;;;5.05;2.72;;;;;;;;;;5031960;28;20036;-53
2021/08/17 10:33:40;;;;;;;12.35;2.55;;;;;;;;;;5032366;28;20400;-53
2021/08/17 10:36:11;;;;;;;9.27;3.30;;;;;;;;;;5032205;28;20325;-53
2021/08/17 10:38:38;;;;;;;4.97;2.53;;;;;;;;;;5032692;28;20032;-53
2021/08/17 10:41:06;;;;;;;6.05;3.22;;;;;;;;;;5032639;28;20363;-53
2021/08/17 10:43:32;;;;;;;8.32;3.20;;;;;;;;;;5036041;28;20084;-53
2021/08/17 10:45:59;;;;;;;5.57;2.95;;;;;;;;;;5036675;28;20098;-53
2021/08/17 10:48:50;;;;;;;4.72;2.15;;;;;;;;;;5036617;28;20067;-53
2021/08/17 10:51:19;;;;;;;4.55;2.53;;;;;;;;;;5035361;28;20033;-53
2021/08/17 10:53:45;;;;;;;8.70;2.90;;;;;;;;;;5036351;28;20021;-53
2021/08/17 10:56:12;;;;;;;6.55;2.53;;;;;;;;;;5036184;28;20032;-53
2021/08/17 10:58:42;;;;;;;8.30;2.72;;;;;;;;;;5036576;28;20026;-53
2021/08/17 11:01:08;;;;;;;7.72;2.72;;;;;;;;;;5035153;28;20065;-53
2021/08/17 11:03:46;;;;;;;9.48;3.20;;;;;;;;;;5036367;28;20098;-53
2021/08/17 11:06:32;;;;;;;6.43;3.00;;;;;;;;;;5036326;28;20053;-53
2021/08/17 11:08:59;;;;;;;4.78;2.90;;;;;;;;;;5035860;28;20021;-53
2021/08/17 11:11:25;;;;;;;6.15;2.75;;;;;;;;;;5035065;28;20030;-53
2021/08/17 11:14:01;;;;;;;11.07;3.80;;;;;;;;;;5035908;28;20038;-53
2021/08/17 11:16:27;;;;;;;4.13;2.53;;;;;;;;;;5035807;28;20036;-53
2021/08/17 11:18:54;;;;;;;6.55;2.85;;;;;;;;;;5036086;28;20021;-53
2021/08/17 11:21:52;;;;;;;7.03;2.80;;;;;;;;;;5035033;28;20022;-53
2021/08/17 11:24:19;;;;;;;6.90;2.97;;;;;;;;;;5033232;28;20045;-53
2021/08/17 11:26:47;;;;;;;7.38;3.10;;;;;;;;;;5033035;28;20033;-53
2021/08/17 11:29:27;;;;;;;5.50;2.92;;;;;;;;;;5033075;28;20028;-53
2021/08/17 11:31:53;;;;;;;6.10;3.00;;;;;;;;;;5032684;28;20025;-53
2021/08/17 11:34:38;;;;;;;7.72;3.38;;;;;;;;;;5032768;28;20447;-53
2021/08/17 11:37:12;;;;;;;6.05;2.65;;;;;;;;;;5033190;28;20017;-53
2021/08/17 11:39:45;;;;;;;6.50;2.83;;;;;;;;;;5032850;28;20033;-53
2021/08/17 11:42:18;;;;;;;5.57;2.80;;;;;;;;;;5032472;28;20064;-53
2021/08/17 11:44:45;;;;;;;5.82;2.95;;;;;;;;;;5033173;28;20026;-53
2021/08/17 11:47:13;;;;;;;6.75;3.08;;;;;;;;;;5032745;28;20135;-53
2021/08/17 11:49:40;;;;;;;10.48;2.97;;;;;;;;;;5032212;28;20034;-52
2021/08/17 11:52:07;;;;;;;6.22;2.42;;;;;;;;;;5032026;28;20100;-53
2021/08/17 11:54:34;;;;;;;5.88;3.30;;;;;;;;;;5032948;28;20096;-53
2021/08/17 11:57:02;;;;;;;6.18;2.67;;;;;;;;;;5032804;28;20021;-54
2021/08/17 11:59:42;;;;;;;7.32;2.70;;;;;;;;;;5032980;28;20068;-53
2021/08/17 12:02:08;;;;;;;;;;;;;;;;;;5035204;28;20026;-53
2021/08/17 12:04:34;;;;;;;4.38;2.45;;;;;;;;;;5035298;28;19912;-53
2021/08/17 12:07:13;;;;;;;5.47;2.80;;;;;;;;;;5034644;28;20351;-53
2021/08/17 12:09:41;;;;;;;5.57;2.50;;;;;;;;;;5034962;28;20036;-53
2021/08/17 12:12:07;;;;;;;5.85;3.10;;;;;;;;;;5034054;28;20137;-53
2021/08/17 12:14:34;;;;;;;6.75;2.65;;;;;;;;;;5035146;28;20071;-53
2021/08/17 12:17:00;;;;;;;8.07;2.83;;;;;;;;;;5034994;28;20160;-53
2021/08/17 12:19:26;;;;;;;4.70;2.80;;;;;;;;;;5034664;28;20029;-53
2021/08/17 12:21:52;;;;;;;4.68;2.40;;;;;;;;;;5034086;28;20052;-53
2021/08/17 12:24:25;;;;;;;4.70;2.55;;;;;;;;;;5034708;28;20025;-53
2021/08/17 12:27:00;;;;;;;7.15;3.00;;;;;;;;;;5034667;28;20037;-53
2021/08/17 12:29:36;;;;;;;6.22;3.00;;;;;;;;;;5034302;28;20026;-53
2021/08/17 12:32:14;;;;;;;5.07;2.67;;;;;;;;;;5034711;28;20049;-53
2021/08/17 12:34:47;;;;;;;5.70;2.90;;;;;;;;;;5034741;28;20064;-53
2021/08/17 12:37:26;;;;;;;5.28;2.47;;;;;;;;;;5034346;28;20026;-53
2021/08/17 12:39:53;;;;;;;6.82;2.85;;;;;;;;;;5034280;28;20017;-53
2021/08/17 12:42:19;;;;;;;4.82;2.50;;;;;;;;;;5034458;28;20025;-53
2021/08/17 12:44:45;;;;;;;4.75;2.70;;;;;;;;;;5034544;28;20329;-53
2021/08/17 12:47:15;;;;;;;3.65;2.65;;;;;;;;;;5034238;28;20029;-53
2021/08/17 12:49:48;;;;;;;7.60;2.78;;;;;;;;;;5025517;28;20042;-53
2021/08/17 12:52:17;;;;;;;6.88;2.97;;;;;;;;;;5022104;28;20045;-53
2021/08/17 12:54:44;;;;;;;6.03;2.00;;;;;;;;;;5025848;28;20116;-53
2021/08/17 12:57:10;;;;;;;7.22;3.13;;;;;;;;;;5032046;28;20022;-53
2021/08/17 12:59:36;;;;;;;5.72;2.78;;;;;;;;;;5017556;28;20507;-53
2021/08/17 13:02:02;;;;;;;5.07;2.70;;;;;;;;;;5013440;28;20479;-53
2021/08/17 13:04:28;;;;;;;6.63;2.88;;;;;;;;;;5013581;28;20084;-53
2021/08/17 13:06:54;;;;;;;6.40;2.70;;;;;;;;;;5014084;28;20370;-53
2021/08/17 13:09:20;;;;;;;5.78;2.97;;;;;;;;;;5013944;28;20527;-53
2021/08/17 13:11:46;;;;;;;5.38;2.63;;;;;;;;;;5013544;28;20022;-53
2021/08/17 13:14:12;;;;;;;5.30;2.78;;;;;;;;;;5013950;28;20084;-53
2021/08/17 13:16:38;;;;;;;3.58;2.28;;;;;;;;;;5014049;28;20025;-53
2021/08/17 13:19:04;;;;;;;3.30;2.17;;;;;;;;;;5013715;28;20022;-53
2021/08/17 13:21:29;;;;;;;4.97;2.33;;;;;;;;;;5013696;28;20026;-53
2021/08/17 13:23:57;;;;;;;4.75;2.20;;;;;;;;;;5013276;28;20032;-53
2021/08/17 13:26:23;;;;;;;5.68;2.67;;;;;;;;;;5014049;28;20040;-53
2021/08/17 13:28:49;;;;;;;6.72;2.53;;;;;;;;;;5013932;28;20018;-53
2021/08/17 13:31:15;;;;;;;5.15;2.17;;;;;;;;;;5012703;28;20026;-53
2021/08/17 13:33:41;;;;;;;6.22;2.20;;;;;;;;;;5013440;28;20037;-53
2021/08/17 13:36:07;;;;;;;5.05;2.50;;;;;;;;;;5026156;28;20021;-53
2021/08/17 13:38:33;;;;;;;4.10;2.28;;;;;;;;;;5033184;28;20112;-53
2021/08/17 13:40:59;;;;;;;4.75;2.50;;;;;;;;;;5032828;28;20028;-53
2021/08/17 13:43:26;;;;;;;7.20;2.60;;;;;;;;;;5033225;28;20018;-53
2021/08/17 13:45:54;;;;;;;4.50;2.15;;;;;;;;;;5033013;28;20034;-53
2021/08/17 13:48:20;;;;;;;5.95;2.72;;;;;;;;;;5033314;28;20034;-53
2021/08/17 13:50:46;;;;;;;5.80;3.03;;;;;;;;;;5032441;28;20033;-53
2021/08/17 13:53:12;;;;;;;4.20;2.42;;;;;;;;;;5033065;28;20024;-53
2021/08/17 13:55:38;;;;;;;4.32;1.90;;;;;;;;;;5033356;28;20434;-53
2021/08/17 13:58:04;;;;;;;6.40;2.70;;;;;;;;;;5033033;28;20443;-53
2021/08/17 14:00:30;;;;;;;5.30;2.53;;;;;;;;;;5032235;28;20082;-53
2021/08/17 14:02:56;;;;;;;6.05;2.90;;;;;;;;;;5032670;28;20021;-53
2021/08/17 14:05:22;;;;;;;3.35;2.30;;;;;;;;;;5033331;28;20382;-53
2021/08/17 14:07:48;;;;;;;10.20;2.83;;;;;;;;;;5033030;28;20022;-53
2021/08/17 14:10:14;;;;;;;5.75;2.22;;;;;;;;;;5032434;28;20347;-53
2021/08/17 14:12:40;;;;;;;3.22;1.83;;;;;;;;;;5032307;28;20025;-53
2021/08/17 14:15:06;;;;;;;3.80;2.17;;;;;;;;;;5032805;28;20030;-53
2021/08/17 14:17:32;;;;;;;4.82;2.40;;;;;;;;;;5032788;28;20091;-53
2021/08/17 14:19:58;;;;;;;4.80;2.13;;;;;;;;;;5032427;28;20447;-54
2021/08/17 14:22:24;;;;;;;4.70;2.50;;;;;;;;;;5032532;28;20033;-53
2021/08/17 14:24:50;;;;;;;3.25;2.42;;;;;;;;;;5032360;28;20067;-53
2021/08/17 14:27:16;;;;;;;6.97;2.88;;;;;;;;;;5033190;28;20020;-53
2021/08/17 14:29:42;;;;;;;3.28;2.38;;;;;;;;;;5031672;28;20170;-53
2021/08/17 14:32:08;;;;;;;4.38;2.40;;;;;;;;;;5032034;28;20459;-53
2021/08/17 14:34:35;;;;;;;5.00;2.25;;;;;;;;;;5032905;28;20038;-53
2021/08/17 14:37:03;;;;;;;2.58;1.90;;;;;;;;;;5032938;28;20360;-53
2021/08/17 14:39:29;;;;;;;5.93;2.40;;;;;;;;;;5032178;28;20037;-53
2021/08/17 14:41:55;;;;;;;6.75;2.63;;;;;;;;;;5032124;28;20017;-53